Time;durP1;ratioP1;P1;durP2;ratioP2;P2;SDS_P1;SDS_P2;PMS_P1;PMS_P2;Temp;Humidity;BMP_temperature;BMP_pressure;BME280_temperature;BME280_humidity;BME280_pressure;Samples;Min_cycle;Max_cycle;Signal;HPM_P1;HPM_P2
2021/03/10 00:00:59;;;;;;;36.10;24.00;;;4.50;99.90;;;;;;5072113;28;20316;-82
2021/03/10 00:03:25;;;;;;;35.40;24.73;;;4.50;99.90;;;;;;5073436;28;20272;-82
2021/03/10 00:05:50;;;;;;;35.77;25.20;;;4.50;99.90;;;;;;5055341;28;20646;-82
2021/03/10 00:08:16;;;;;;;41.00;28.37;;;4.10;99.90;;;;;;5055430;28;20197;-82
2021/03/10 00:10:41;;;;;;;36.67;25.47;;;4.50;99.90;;;;;;5073353;28;20178;-82
2021/03/10 00:13:08;;;;;;;38.87;24.63;;;4.40;99.90;;;;;;5055168;28;20272;-82
2021/03/10 00:15:34;;;;;;;38.53;27.07;;;4.30;99.90;;;;;;5055835;28;20577;-82
2021/03/10 00:18:00;;;;;;;38.97;25.33;;;4.50;99.90;;;;;;5073236;28;20430;-82
2021/03/10 00:20:25;;;;;;;36.13;26.87;;;4.50;99.90;;;;;;5055075;28;20430;-82
2021/03/10 00:22:51;;;;;;;40.10;24.00;;;4.50;99.90;;;;;;5072345;28;20179;-82
2021/03/10 00:25:18;;;;;;;34.67;23.57;;;4.10;99.90;;;;;;5073058;28;20183;-82
2021/03/10 00:27:44;;;;;;;36.90;24.77;;;4.40;99.90;;;;;;5055392;28;20206;-82
2021/03/10 00:30:11;;;;;;;42.40;28.00;;;4.20;99.90;;;;;;5056401;28;20499;-82
2021/03/10 00:32:38;;;;;;;47.40;26.93;;;4.40;99.90;;;;;;5057401;28;20473;-81
2021/03/10 00:35:05;;;;;;;37.03;24.77;;;4.40;99.90;;;;;;5054917;28;20418;-82
2021/03/10 00:37:31;;;;;;;44.63;26.70;;;4.40;99.90;;;;;;5055529;28;20975;-82
2021/03/10 00:39:56;;;;;;;47.87;28.00;;;4.40;99.90;;;;;;5072821;28;20417;-82
2021/03/10 00:42:22;;;;;;;38.80;25.47;;;4.40;99.90;;;;;;5054472;28;20546;-82
2021/03/10 00:44:48;;;;;;;41.93;27.80;;;4.40;99.90;;;;;;5054690;28;20187;-82
2021/03/10 00:47:14;;;;;;;41.87;27.60;;;4.10;99.90;;;;;;5072308;28;20262;-82
2021/03/10 00:49:41;;;;;;;39.13;28.20;;;4.40;99.90;;;;;;5054583;28;20584;-82
2021/03/10 00:52:07;;;;;;;40.80;25.97;;;4.40;99.90;;;;;;5054558;28;20480;-82
2021/03/10 00:54:33;;;;;;;38.97;26.83;;;4.50;99.90;;;;;;5054394;28;20418;-82
2021/03/10 00:56:59;;;;;;;42.43;26.60;;;4.20;99.90;;;;;;5054360;28;20236;-82
2021/03/10 00:59:25;;;;;;;40.67;27.27;;;4.50;99.90;;;;;;5072243;28;20457;-82
2021/03/10 01:01:50;;;;;;;45.70;28.27;;;4.60;99.90;;;;;;5054326;28;20654;-82
2021/03/10 01:04:16;;;;;;;40.33;26.00;;;4.50;99.90;;;;;;5054346;28;20175;-82
2021/03/10 01:06:42;;;;;;;41.37;26.43;;;4.30;99.90;;;;;;5054201;28;20194;-82
2021/03/10 01:09:08;;;;;;;42.03;25.20;;;4.40;99.90;;;;;;5072167;28;20175;-81
2021/03/10 01:11:34;;;;;;;38.43;23.30;;;4.20;99.90;;;;;;5054165;28;20691;-82
2021/03/10 01:14:01;;;;;;;50.70;28.40;;;4.60;99.90;;;;;;5054212;28;20508;-82
2021/03/10 01:16:27;;;;;;;43.77;27.40;;;4.30;99.90;;;;;;5054282;28;20482;-82
2021/03/10 01:18:53;;;;;;;44.00;24.90;;;4.40;99.90;;;;;;5054299;28;20979;-82
2021/03/10 01:21:19;;;;;;;39.47;24.73;;;4.40;99.90;;;;;;5054154;28;20433;-82
2021/03/10 01:23:44;;;;;;;37.53;23.00;;;4.40;99.90;;;;;;5053986;28;20244;-82
2021/03/10 01:26:10;;;;;;;38.20;26.47;;;4.50;99.90;;;;;;5054037;28;20171;-82
2021/03/10 01:28:35;;;;;;;44.57;29.57;;;4.10;99.90;;;;;;5054029;28;20909;-82
2021/03/10 01:31:01;;;;;;;39.67;27.47;;;4.50;99.90;;;;;;5053799;28;20179;-82
2021/03/10 01:33:27;;;;;;;37.90;25.67;;;4.60;99.90;;;;;;5071970;28;20686;-82
2021/03/10 01:35:52;;;;;;;42.03;27.80;;;4.20;99.90;;;;;;5071942;28;20175;-82
2021/03/10 01:38:18;;;;;;;41.93;28.50;;;4.10;99.90;;;;;;5053815;28;20205;-82
2021/03/10 01:40:44;;;;;;;44.60;28.27;;;4.50;99.90;;;;;;5053750;28;20231;-82
2021/03/10 01:43:09;;;;;;;44.70;28.40;;;4.20;99.90;;;;;;5071764;28;20194;-82
2021/03/10 01:45:36;;;;;;;44.67;29.07;;;4.40;99.90;;;;;;5053895;28;20656;-82
2021/03/10 01:48:05;;;;;;;38.97;25.27;;;4.30;99.90;;;;;;5053139;28;20171;-82
2021/03/10 01:50:32;;;;;;;41.70;25.63;;;4.30;99.90;;;;;;5053732;28;20555;-82
2021/03/10 01:52:58;;;;;;;41.73;25.50;;;4.30;99.90;;;;;;5053725;28;20546;-82
2021/03/10 01:55:24;;;;;;;43.73;27.27;;;3.90;99.90;;;;;;5053638;28;20909;-82
2021/03/10 01:57:50;;;;;;;45.80;29.27;;;4.30;99.90;;;;;;5071625;28;20171;-82
2021/03/10 02:00:18;;;;;;;43.17;27.07;;;4.40;99.90;;;;;;5053510;28;20975;-82
2021/03/10 02:02:44;;;;;;;42.30;27.20;;;4.60;99.90;;;;;;5053764;28;20797;-82
2021/03/10 02:05:13;;;;;;;29.03;18.87;;;4.10;99.90;;;;;;5053917;28;20429;-82
2021/03/10 02:08:01;;;;;;;43.70;25.93;;;4.50;99.90;;;;;;5053803;28;20176;-81
2021/03/10 02:10:55;;;;;;;41.53;25.60;;;4.50;99.90;;;;;;5071768;28;20428;-82
2021/03/10 02:13:47;;;;;;;44.40;27.37;;;4.50;99.90;;;;;;5071773;28;20516;-81
2021/03/10 02:16:36;;;;;;;45.20;27.57;;;4.60;99.90;;;;;;5071670;28;20456;-82
2021/03/10 02:19:19;;;;;;;39.60;24.77;;;4.60;99.90;;;;;;5049207;28;20941;-82
2021/03/10 02:22:00;;;;;;;30.47;18.50;;;4.60;99.90;;;;;;5053643;28;20433;-82
2021/03/10 02:24:50;;;;;;;34.47;22.13;;;4.60;99.90;;;;;;5071612;28;20409;-82
2021/03/10 02:27:32;;;;;;;38.40;23.60;;;4.70;99.90;;;;;;5053602;28;20425;-82
2021/03/10 02:30:17;;;;;;;39.17;24.07;;;4.60;99.90;;;;;;5053660;28;20440;-82
2021/03/10 02:33:01;;;;;;;38.10;26.00;;;4.60;99.90;;;;;;5053431;28;20980;-82
2021/03/10 02:35:28;;;;;;;41.03;25.50;;;4.30;99.90;;;;;;5071511;28;20413;-82
2021/03/10 02:37:59;;;;;;;36.50;26.73;;;4.70;99.90;;;;;;5053605;28;20417;-82
2021/03/10 02:40:27;;;;;;;37.53;24.93;;;4.50;99.90;;;;;;5071555;28;20523;-82
2021/03/10 02:42:55;;;;;;;25.63;16.33;;;4.70;99.90;;;;;;5053555;28;20428;-82
2021/03/10 02:45:22;;;;;;;32.20;19.43;;;4.60;99.90;;;;;;5054025;28;20955;-82
2021/03/10 02:47:49;;;;;;;43.77;26.93;;;4.70;99.90;;;;;;5056986;28;20417;-82
2021/03/10 02:50:15;;;;;;;44.57;24.13;;;4.60;99.90;;;;;;5057176;28;20425;-82
2021/03/10 02:52:41;;;;;;;38.53;22.27;;;4.70;99.90;;;;;;5057022;28;20480;-82
2021/03/10 02:55:08;;;;;;;30.60;22.97;;;4.60;99.90;;;;;;5057057;28;20421;-82
2021/03/10 02:57:35;;;;;;;35.43;26.13;;;4.60;99.90;;;;;;5057049;28;20436;-82
2021/03/10 03:00:05;;;;;;;30.00;21.40;;;4.40;99.90;;;;;;5056611;28;20485;-82
2021/03/10 03:02:30;;;;;;;41.23;24.10;;;4.50;99.90;;;;;;5074799;28;20928;-82
2021/03/10 03:04:56;;;;;;;39.10;25.07;;;4.60;99.90;;;;;;5074721;28;20409;-82
2021/03/10 03:07:21;;;;;;;36.87;25.30;;;4.30;99.90;;;;;;5056717;28;20187;-82
2021/03/10 03:09:48;;;;;;;44.23;26.17;;;4.40;99.90;;;;;;5056890;28;20206;-82
2021/03/10 03:12:14;;;;;;;25.53;15.97;;;4.60;99.90;;;;;;5074594;28;20828;-82
2021/03/10 03:14:42;;;;;;;33.30;23.20;;;4.60;99.90;;;;;;5074730;28;20194;-82
2021/03/10 03:17:09;;;;;;;41.77;25.97;;;4.60;99.90;;;;;;5056602;28;20188;-81
2021/03/10 03:19:34;;;;;;;42.87;25.83;;;4.60;99.90;;;;;;5074847;28;20488;-82
2021/03/10 03:22:01;;;;;;;41.90;23.83;;;4.20;99.90;;;;;;5074879;28;20521;-82
2021/03/10 03:24:29;;;;;;;30.63;19.57;;;4.60;99.90;;;;;;5074477;28;20257;-82
2021/03/10 03:26:56;;;;;;;37.70;23.00;;;4.60;99.90;;;;;;5056335;28;20512;-82
2021/03/10 03:29:24;;;;;;;42.37;28.03;;;4.60;99.90;;;;;;5074353;28;20484;-81
2021/03/10 03:31:52;;;;;;;28.43;16.30;;;4.30;99.90;;;;;;5056328;28;20473;-82
2021/03/10 03:34:18;;;;;;;36.67;24.13;;;4.10;99.90;;;;;;5056338;28;20924;-81
2021/03/10 03:36:44;;;;;;;32.37;19.50;;;4.60;99.90;;;;;;5056522;28;20490;-82
2021/03/10 03:39:10;;;;;;;34.37;21.33;;;4.10;99.90;;;;;;5056217;28;20530;-82
2021/03/10 03:41:36;;;;;;;36.73;22.00;;;4.50;99.90;;;;;;5074021;28;20823;-82
2021/03/10 03:44:02;;;;;;;38.80;26.93;;;4.20;99.90;;;;;;5056017;28;20425;-82
2021/03/10 03:46:31;;;;;;;45.03;27.40;;;4.50;99.90;;;;;;5074275;28;20171;-82
2021/03/10 03:49:02;;;;;;;44.60;26.60;;;4.50;99.90;;;;;;5056028;28;20500;-82
2021/03/10 03:51:29;;;;;;;39.47;27.50;;;4.50;99.90;;;;;;5073783;28;20556;-82
2021/03/10 03:54:00;;;;;;;40.37;26.33;;;4.50;99.90;;;;;;5055828;28;20929;-82
2021/03/10 03:56:27;;;;;;;43.27;28.50;;;4.20;99.90;;;;;;5055664;28;20535;-82
2021/03/10 03:58:53;;;;;;;42.43;25.40;;;4.50;99.90;;;;;;5072828;28;20421;-82
2021/03/10 04:01:19;;;;;;;46.47;25.53;;;4.40;99.90;;;;;;5056004;28;20499;-82
2021/03/10 04:03:46;;;;;;;41.60;28.50;;;4.10;99.90;;;;;;5055519;28;20426;-82
2021/03/10 04:06:13;;;;;;;42.80;26.97;;;4.30;99.90;;;;;;5055515;28;20440;-82
2021/03/10 04:08:41;;;;;;;38.63;27.40;;;4.30;99.90;;;;;;5055821;28;20425;-82
2021/03/10 04:11:08;;;;;;;44.47;27.10;;;4.10;99.90;;;;;;5055610;28;20479;-82
2021/03/10 04:13:33;;;;;;;39.77;27.90;;;4.30;99.90;;;;;;5073321;28;20483;-82
2021/03/10 04:15:59;;;;;;;41.43;28.07;;;4.20;99.90;;;;;;5055541;28;20520;-82
2021/03/10 04:18:25;;;;;;;47.27;30.60;;;4.30;99.90;;;;;;5055562;28;20183;-82
2021/03/10 04:20:51;;;;;;;49.00;28.50;;;4.30;99.90;;;;;;5055531;28;20579;-82
2021/03/10 04:23:16;;;;;;;49.30;31.87;;;4.30;99.90;;;;;;5055382;28;20639;-82
2021/03/10 04:25:42;;;;;;;47.80;30.40;;;4.30;99.90;;;;;;5073475;28;20183;-82
2021/03/10 04:28:08;;;;;;;40.80;29.50;;;4.40;99.90;;;;;;5055495;28;20182;-82
2021/03/10 04:30:34;;;;;;;41.90;26.97;;;4.10;99.90;;;;;;5055307;28;20507;-81
2021/03/10 04:32:59;;;;;;;43.77;29.73;;;4.40;99.90;;;;;;5055264;28;20476;-82
2021/03/10 04:35:25;;;;;;;44.57;27.90;;;4.40;99.90;;;;;;5054903;28;20175;-82
2021/03/10 04:37:51;;;;;;;46.40;30.73;;;4.40;99.90;;;;;;5055355;28;20221;-81
2021/03/10 04:40:17;;;;;;;44.10;28.73;;;4.40;99.90;;;;;;5055006;28;20179;-82
2021/03/10 04:42:42;;;;;;;43.80;28.83;;;4.50;99.90;;;;;;5054986;28;20646;-82
2021/03/10 04:45:10;;;;;;;41.27;28.80;;;4.20;99.90;;;;;;5073320;28;20418;-82
2021/03/10 04:47:36;;;;;;;46.80;31.20;;;4.50;99.90;;;;;;5055221;28;20175;-82
2021/03/10 04:50:03;;;;;;;50.77;30.43;;;4.40;99.90;;;;;;5072731;28;20751;-82
2021/03/10 04:52:29;;;;;;;43.20;27.93;;;4.40;99.90;;;;;;5055746;28;20477;-81
2021/03/10 04:54:54;;;;;;;41.53;28.97;;;4.40;99.90;;;;;;5054844;28;20785;-82
2021/03/10 04:57:20;;;;;;;46.27;30.07;;;4.30;99.90;;;;;;5055116;28;20175;-82
2021/03/10 04:59:45;;;;;;;42.27;27.30;;;4.40;99.90;;;;;;5072565;28;20231;-81
2021/03/10 05:02:11;;;;;;;45.03;27.73;;;4.00;99.90;;;;;;5054687;28;20171;-82
2021/03/10 05:04:38;;;;;;;47.37;31.70;;;3.90;99.90;;;;;;5054634;28;20222;-82
2021/03/10 05:07:04;;;;;;;42.90;29.90;;;4.00;99.90;;;;;;5054434;28;20175;-82
2021/03/10 05:09:30;;;;;;;36.20;27.33;;;4.40;99.90;;;;;;5072575;28;20421;-82
2021/03/10 05:11:55;;;;;;;47.87;30.20;;;4.10;99.90;;;;;;5072887;28;20199;-81
2021/03/10 05:14:21;;;;;;;48.47;28.30;;;4.40;99.90;;;;;;5054330;28;20205;-81
2021/03/10 05:16:47;;;;;;;51.30;30.70;;;4.00;99.90;;;;;;5054975;28;20183;-81
2021/03/10 05:19:12;;;;;;;45.13;29.00;;;4.40;99.90;;;;;;5054710;28;20591;-82
2021/03/10 05:21:38;;;;;;;44.40;32.73;;;4.50;99.90;;;;;;5054943;28;20270;-79
2021/03/10 05:24:04;;;;;;;47.63;33.97;;;4.40;99.90;;;;;;5072031;28;20179;-81
2021/03/10 05:26:29;;;;;;;48.30;31.00;;;4.60;99.90;;;;;;5054150;28;20183;-81
2021/03/10 05:28:55;;;;;;;48.37;29.63;;;4.20;99.90;;;;;;5072666;28;20436;-80
2021/03/10 05:31:21;;;;;;;40.63;30.53;;;4.50;99.90;;;;;;5054282;28;20666;-80
2021/03/10 05:33:46;;;;;;;42.73;29.97;;;4.50;99.90;;;;;;5068557;28;20658;-80
2021/03/10 05:36:12;;;;;;;47.17;32.17;;;4.20;99.90;;;;;;5046637;28;20178;-81
2021/03/10 05:38:37;;;;;;;45.43;31.27;;;4.50;99.90;;;;;;5053060;28;20175;-81
2021/03/10 05:41:03;;;;;;;45.97;31.20;;;4.50;99.90;;;;;;5053288;28;20890;-81
2021/03/10 05:43:30;;;;;;;51.23;31.60;;;4.50;99.90;;;;;;5052889;28;20232;-81
2021/03/10 05:45:55;;;;;;;44.67;29.27;;;4.10;99.90;;;;;;5053318;28;20183;-80
2021/03/10 05:48:21;;;;;;;46.40;30.70;;;4.40;99.90;;;;;;5070452;28;20781;-81
2021/03/10 05:50:47;;;;;;;45.27;31.33;;;4.60;99.90;;;;;;5071370;28;20194;-81
2021/03/10 05:53:15;;;;;;;42.27;29.27;;;4.40;99.90;;;;;;5056141;28;20526;-81
2021/03/10 05:55:41;;;;;;;45.80;30.60;;;4.60;99.90;;;;;;5070874;28;20163;-82
2021/03/10 05:58:14;;;;;;;46.53;30.93;;;4.40;99.90;;;;;;5069623;28;20432;-82
2021/03/10 06:00:47;;;;;;;45.70;28.77;;;4.70;99.90;;;;;;5072374;28;20549;-82
2021/03/10 06:03:13;;;;;;;43.50;30.13;;;4.60;99.90;;;;;;5069749;28;20417;-82
2021/03/10 06:05:39;;;;;;;45.80;29.10;;;4.60;99.90;;;;;;5069645;28;20429;-82
2021/03/10 06:08:07;;;;;;;43.43;28.33;;;4.60;99.90;;;;;;5069845;28;20422;-81
2021/03/10 06:10:35;;;;;;;48.47;29.50;;;4.70;99.90;;;;;;5070364;28;20425;-82
2021/03/10 06:13:01;;;;;;;40.57;27.60;;;4.60;99.90;;;;;;5070467;28;20864;-82
2021/03/10 06:15:26;;;;;;;44.20;29.10;;;4.70;99.90;;;;;;5070065;28;20650;-81
2021/03/10 06:17:52;;;;;;;44.70;27.97;;;4.70;99.90;;;;;;5069547;28;20191;-81
2021/03/10 06:20:26;;;;;;;40.90;26.23;;;4.70;99.90;;;;;;5033743;28;20176;-81
2021/03/10 06:22:55;;;;;;;42.13;28.43;;;4.70;99.90;;;;;;5055370;28;20547;-82
2021/03/10 06:25:22;;;;;;;41.40;29.77;;;4.70;99.90;;;;;;5056873;28;20448;-81
2021/03/10 06:27:55;;;;;;;37.67;25.90;;;4.80;99.90;;;;;;5075133;28;20425;-82
2021/03/10 06:30:50;;;;;;;45.20;26.90;;;4.80;99.90;;;;;;5056613;28;20414;-83
2021/03/10 06:33:23;;;;;;;42.80;30.20;;;4.80;99.90;;;;;;5034821;28;20933;-81
2021/03/10 06:35:49;;;;;;;43.43;28.07;;;4.90;99.90;;;;;;5058733;28;20429;-82
2021/03/10 06:38:16;;;;;;;43.43;29.20;;;4.90;99.90;;;;;;5074628;28;20425;-82
2021/03/10 06:40:53;;;;;;;44.80;29.83;;;4.90;99.90;;;;;;5056445;28;20410;-81
2021/03/10 06:43:19;;;;;;;43.20;27.90;;;5.10;99.90;;;;;;5056076;28;20503;-82
2021/03/10 06:45:45;;;;;;;48.13;29.37;;;5.10;99.90;;;;;;5064566;28;20938;-81
2021/03/10 06:48:19;;;;;;;47.13;27.57;;;5.20;99.90;;;;;;5074062;28;20892;-80
2021/03/10 06:50:45;;;;;;;38.87;28.33;;;5.20;99.90;;;;;;5072483;28;20465;-81
2021/03/10 06:53:11;;;;;;;43.47;31.10;;;5.30;99.90;;;;;;5072508;28;20503;-80
2021/03/10 06:55:44;;;;;;;40.20;29.67;;;5.30;99.90;;;;;;5072274;28;20179;-81
2021/03/10 06:58:11;;;;;;;40.90;27.60;;;5.40;99.90;;;;;;5073570;28;20179;-83
2021/03/10 07:00:37;;;;;;;40.87;28.67;;;5.50;99.90;;;;;;5072397;28;20493;-81
2021/03/10 07:03:04;;;;;;;39.23;27.30;;;5.40;99.90;;;;;;5076410;28;20413;-82
2021/03/10 07:05:31;;;;;;;35.27;24.73;;;5.50;99.90;;;;;;5072321;28;20517;-82
2021/03/10 07:07:57;;;;;;;36.80;26.67;;;5.50;99.90;;;;;;5071814;28;20460;-82
2021/03/10 07:10:24;;;;;;;42.07;29.53;;;5.40;99.90;;;;;;5072246;28;20421;-82
2021/03/10 07:12:51;;;;;;;37.13;28.20;;;5.50;99.90;;;;;;5074778;28;20555;-80
2021/03/10 07:15:17;;;;;;;41.10;28.73;;;5.50;99.90;;;;;;5068035;28;21161;-81
2021/03/10 07:17:44;;;;;;;40.40;26.37;;;5.50;99.90;;;;;;5074452;28;20466;-82
2021/03/10 07:20:10;;;;;;;37.93;25.27;;;5.50;99.90;;;;;;5054991;28;20421;-82
2021/03/10 07:22:41;;;;;;;39.30;28.17;;;5.40;99.90;;;;;;5055412;28;20793;-82
2021/03/10 07:25:12;;;;;;;41.87;28.87;;;5.50;99.90;;;;;;5055265;28;20442;-83
2021/03/10 07:27:49;;;;;;;39.97;28.60;;;5.60;99.90;;;;;;5045083;28;20480;-81
2021/03/10 07:30:15;;;;;;;42.77;28.13;;;5.60;99.90;;;;;;5049291;28;20479;-81
2021/03/10 07:32:41;;;;;;;39.70;25.47;;;5.60;99.90;;;;;;5072217;28;20469;-81
2021/03/10 07:35:09;;;;;;;36.93;26.20;;;5.80;99.90;;;;;;5069858;28;20180;-81
2021/03/10 07:37:36;;;;;;;39.53;27.50;;;5.80;99.90;;;;;;5073178;28;20186;-81
2021/03/10 07:40:11;;;;;;;36.63;26.60;;;5.80;99.90;;;;;;5071202;28;20418;-81
2021/03/10 07:42:53;;;;;;;33.43;26.57;;;5.80;99.90;;;;;;5071675;28;20773;-81
2021/03/10 07:45:25;;;;;;;37.63;25.50;;;5.80;99.90;;;;;;5072500;28;20482;-82
2021/03/10 07:47:56;;;;;;;38.57;27.23;;;6.00;99.90;;;;;;5072345;28;20425;-80
2021/03/10 07:50:35;;;;;;;38.43;25.30;;;6.00;99.90;;;;;;5073423;28;20429;-81
2021/03/10 07:53:01;;;;;;;37.60;28.30;;;6.10;99.90;;;;;;5072821;28;20922;-81
2021/03/10 07:55:27;;;;;;;35.80;25.90;;;6.00;99.90;;;;;;5074000;28;20552;-81
2021/03/10 07:57:53;;;;;;;35.30;27.83;;;6.00;99.90;;;;;;5073550;28;20187;-82
2021/03/10 08:00:40;;;;;;;40.20;27.53;;;6.10;99.90;;;;;;5073048;28;20227;-81
2021/03/10 08:03:06;;;;;;;39.03;25.30;;;6.30;99.90;;;;;;5072042;28;20424;-83
2021/03/10 08:05:35;;;;;;;35.40;24.10;;;6.30;99.90;;;;;;5073925;28;20785;-82
2021/03/10 08:08:16;;;;;;;34.07;23.20;;;6.30;99.90;;;;;;5071979;28;20433;-82
2021/03/10 08:10:42;;;;;;;33.37;22.67;;;6.50;99.90;;;;;;5071949;28;20429;-81
2021/03/10 08:13:21;;;;;;;33.20;25.40;;;6.40;99.90;;;;;;5071784;28;20852;-81
2021/03/10 08:15:47;;;;;;;35.93;24.70;;;6.40;99.90;;;;;;5072814;28;20528;-80
2021/03/10 08:18:19;;;;;;;51.97;27.63;;;6.50;99.90;;;;;;5072008;28;20437;-81
2021/03/10 08:20:45;;;;;;;34.37;23.87;;;6.40;99.90;;;;;;5073359;28;20413;-81
2021/03/10 08:23:10;;;;;;;34.37;25.07;;;6.60;99.90;;;;;;5071772;28;20429;-80
2021/03/10 08:25:36;;;;;;;37.03;25.43;;;6.80;99.90;;;;;;5071912;28;20708;-82
2021/03/10 08:28:12;;;;;;;34.70;25.13;;;7.10;99.90;;;;;;5071860;28;20191;-82
2021/03/10 08:30:39;;;;;;;33.77;25.43;;;6.90;99.90;;;;;;5072310;28;20248;-80
2021/03/10 08:33:05;;;;;;;31.90;24.17;;;7.10;99.90;;;;;;5071266;28;20473;-81
2021/03/10 08:35:31;;;;;;;34.13;25.00;;;7.20;99.90;;;;;;5073276;28;20829;-81
2021/03/10 08:38:00;;;;;;;28.23;20.37;;;7.00;99.90;;;;;;5073334;28;20445;-81
2021/03/10 08:40:29;;;;;;;33.60;23.73;;;7.20;99.90;;;;;;5072425;28;20178;-83
2021/03/10 08:42:56;;;;;;;28.27;22.90;;;7.20;99.90;;;;;;5072284;28;20414;-82
2021/03/10 08:45:24;;;;;;;32.60;23.50;;;7.20;99.90;;;;;;5073264;28;20765;-81
2021/03/10 08:47:58;;;;;;;35.23;23.40;;;7.30;99.90;;;;;;5072010;28;20420;-81
2021/03/10 08:50:28;;;;;;;23.33;14.03;;;7.30;99.90;;;;;;5072288;28;20417;-82
2021/03/10 08:52:54;;;;;;;35.77;23.43;;;7.20;99.90;;;;;;5064640;28;20917;-82
2021/03/10 08:55:25;;;;;;;30.47;21.63;;;7.20;99.90;;;;;;5070708;28;20428;-82
2021/03/10 08:57:52;;;;;;;30.00;23.30;;;7.40;99.90;;;;;;5074987;28;20262;-81
2021/03/10 09:00:23;;;;;;;29.37;20.70;;;7.80;99.90;;;;;;5072638;28;20461;-79
2021/03/10 09:02:50;;;;;;;33.00;23.17;;;7.90;99.90;;;;;;5065079;28;20956;-81
2021/03/10 09:05:22;;;;;;;31.47;22.80;;;8.10;90.10;;;;;;5074305;28;20762;-81
2021/03/10 09:07:48;;;;;;;26.87;19.57;;;7.80;71.80;;;;;;5053990;28;20421;-80
2021/03/10 09:10:16;;;;;;;25.80;21.77;;;7.50;91.00;;;;;;5072047;28;20447;-81
2021/03/10 09:12:44;;;;;;;34.50;24.30;;;7.40;74.50;;;;;;5072068;28;20198;-81
2021/03/10 09:15:17;;;;;;;36.23;22.30;;;7.60;97.30;;;;;;5072998;28;20441;-81
2021/03/10 09:17:43;;;;;;;36.70;23.40;;;7.90;55.20;;;;;;5054183;28;20944;-81
2021/03/10 09:20:31;;;;;;;32.67;23.23;;;7.90;16.80;;;;;;5054032;28;20443;-81
2021/03/10 09:22:58;;;;;;;37.07;22.50;;;7.90;9.20;;;;;;5072006;28;20417;-82
2021/03/10 09:25:29;;;;;;;30.17;21.83;;;7.80;1.00;;;;;;5054224;28;20422;-81
2021/03/10 09:28:14;;;;;;;28.40;21.07;;;8.30;1.00;;;;;;5054117;28;20413;-81
2021/03/10 09:30:49;;;;;;;24.90;15.20;;;8.90;1.00;;;;;;5054052;28;20425;-81
2021/03/10 09:33:22;;;;;;;28.03;19.27;;;8.70;99.90;;;;;;5071688;28;20510;-81
2021/03/10 09:35:55;;;;;;;25.87;19.70;;;8.40;99.90;;;;;;5072141;28;20417;-81
2021/03/10 09:38:22;;;;;;;26.67;19.17;;;8.50;99.90;;;;;;5054062;28;20444;-81
2021/03/10 09:40:57;;;;;;;27.60;20.10;;;8.60;63.80;;;;;;5055715;28;20452;-82
2021/03/10 09:43:25;;;;;;;24.67;18.20;;;8.70;1.20;;;;;;5053838;28;20413;-82
2021/03/10 09:45:56;;;;;;;26.23;17.00;;;8.90;99.90;;;;;;5053628;28;20536;-82
2021/03/10 09:48:31;;;;;;;23.67;14.63;;;9.00;1.00;;;;;;5071917;28;20428;-81
2021/03/10 09:51:10;;;;;;;20.50;18.03;;;9.00;1.00;;;;;;5072589;28;20425;-82
2021/03/10 09:53:41;;;;;;;15.77;12.43;;;9.70;94.90;;;;;;5072055;28;20865;-82
2021/03/10 09:56:09;;;;;;;26.23;13.77;;;10.00;1.00;;;;;;5055561;28;20456;-82
2021/03/10 09:58:50;;;;;;;16.90;12.37;;;10.10;99.90;;;;;;5076224;28;20488;-82
2021/03/10 10:01:15;;;;;;;20.10;13.13;;;9.40;99.90;;;;;;5075695;28;20410;-83
2021/03/10 10:03:41;;;;;;;20.00;12.80;;;9.00;99.90;;;;;;5076159;28;20470;-83
2021/03/10 10:06:20;;;;;;;15.90;12.80;;;9.00;99.90;;;;;;5075677;28;20235;-76
2021/03/10 10:08:46;;;;;;;16.03;12.80;;;9.10;99.90;;;;;;5057471;28;20179;-81
2021/03/10 10:11:12;;;;;;;11.70;7.80;;;8.80;99.90;;;;;;5076369;28;20951;-80
2021/03/10 10:13:46;;;;;;;13.70;7.43;;;8.90;93.30;;;;;;5057331;28;20429;-82
2021/03/10 10:16:13;;;;;;;16.63;10.23;;;8.90;1.00;;;;;;5058175;28;20429;-83
2021/03/10 10:18:39;;;;;;;11.60;9.37;;;8.90;1.00;;;;;;5075930;28;20413;-81
2021/03/10 10:21:05;;;;;;;24.93;11.27;;;9.00;1.00;;;;;;5075361;28;20414;-82
2021/03/10 10:23:32;;;;;;;11.63;9.00;;;8.80;1.00;;;;;;5075488;28;20467;-82
2021/03/10 10:25:57;;;;;;;12.23;9.00;;;9.00;1.00;;;;;;5075321;28;20420;-81
2021/03/10 10:28:23;;;;;;;12.47;7.00;;;9.70;1.00;;;;;;5075318;28;20766;-82
2021/03/10 10:30:49;;;;;;;12.80;7.43;;;10.00;1.00;;;;;;5075823;28;20258;-82
2021/03/10 10:33:15;;;;;;;13.50;7.70;;;10.10;99.90;;;;;;5075159;28;20480;-82
2021/03/10 10:35:41;;;;;;;12.40;8.57;;;10.10;99.90;;;;;;5075092;28;20410;-82
2021/03/10 10:38:08;;;;;;;10.07;7.10;;;10.20;99.90;;;;;;5073838;28;20201;-82
2021/03/10 10:40:34;;;;;;;9.10;7.17;;;10.30;99.90;;;;;;5060304;28;20175;-81
2021/03/10 10:42:59;;;;;;;10.77;6.90;;;10.20;99.90;;;;;;5075275;28;20410;-84
2021/03/10 10:45:25;;;;;;;9.23;6.80;;;10.10;99.90;;;;;;5075072;28;20511;-83
2021/03/10 10:47:51;;;;;;;14.73;7.53;;;9.90;99.90;;;;;;5075066;28;20176;-82
2021/03/10 10:50:16;;;;;;;6.87;6.23;;;10.00;99.90;;;;;;5074860;28;20189;-82
2021/03/10 10:52:44;;;;;;;12.17;9.73;;;10.00;99.90;;;;;;5056592;28;20214;-82
2021/03/10 10:55:12;;;;;;;14.47;9.27;;;9.90;99.90;;;;;;5075346;28;20179;-80
2021/03/10 10:57:38;;;;;;;11.50;8.43;;;9.80;99.90;;;;;;5060662;28;20960;-82
2021/03/10 11:00:08;;;;;;;10.00;8.63;;;9.60;99.90;;;;;;5074785;28;20553;-82
2021/03/10 11:02:34;;;;;;;9.47;8.57;;;9.40;99.90;;;;;;5074967;28;20228;-82
2021/03/10 11:05:00;;;;;;;13.27;9.50;;;9.30;99.90;;;;;;5073629;28;20855;-80
2021/03/10 11:07:25;;;;;;;13.67;10.13;;;9.30;99.90;;;;;;5076654;28;20429;-82
2021/03/10 11:09:51;;;;;;;12.03;8.93;;;9.30;1.00;;;;;;5073260;28;20651;-82
2021/03/10 11:12:16;;;;;;;10.00;6.60;;;9.40;99.90;;;;;;5075153;28;20218;-82
2021/03/10 11:14:42;;;;;;;13.97;8.33;;;9.50;99.90;;;;;;5074564;28;20182;-82
2021/03/10 11:17:08;;;;;;;12.27;9.87;;;9.50;99.90;;;;;;5074842;28;20172;-82
2021/03/10 11:19:38;;;;;;;17.70;10.27;;;9.60;99.90;;;;;;5074876;28;20179;-82
2021/03/10 11:22:04;;;;;;;17.20;10.17;;;9.40;99.90;;;;;;5075363;28;20221;-82
2021/03/10 11:24:32;;;;;;;9.27;6.40;;;9.40;99.90;;;;;;5073314;28;20417;-82
2021/03/10 11:26:58;;;;;;;7.80;7.00;;;9.50;99.90;;;;;;5073377;28;20437;-82
2021/03/10 11:29:24;;;;;;;5.23;4.60;;;9.30;99.90;;;;;;5075145;28;20928;-82
2021/03/10 11:31:49;;;;;;;5.20;4.70;;;9.20;99.90;;;;;;5075536;28;20289;-82
2021/03/10 11:34:16;;;;;;;5.60;4.73;;;9.20;99.90;;;;;;5074987;28;20654;-81
2021/03/10 11:36:42;;;;;;;5.30;4.80;;;9.50;99.90;;;;;;5074155;28;20170;-82
2021/03/10 11:39:07;;;;;;;7.00;6.10;;;10.00;99.90;;;;;;5075583;28;20770;-81
2021/03/10 11:41:37;;;;;;;8.33;5.33;;;10.20;99.90;;;;;;5074197;28;20183;-83
2021/03/10 11:44:04;;;;;;;9.37;6.73;;;10.40;99.90;;;;;;5072829;28;20171;-82
2021/03/10 11:46:30;;;;;;;16.20;7.90;;;10.70;99.90;;;;;;5074083;28;20405;-84
2021/03/10 11:48:56;;;;;;;19.03;17.50;;;10.50;99.90;;;;;;5075222;28;20925;-82
2021/03/10 11:51:21;;;;;;;7.70;6.30;;;10.30;99.90;;;;;;5075732;28;20179;-82
2021/03/10 11:53:47;;;;;;;7.33;5.20;;;10.20;99.90;;;;;;5073738;28;20179;-82
2021/03/10 11:56:12;;;;;;;8.57;5.40;;;10.10;99.90;;;;;;5073575;28;20179;-82
2021/03/10 11:58:39;;;;;;;7.80;7.00;;;10.30;99.90;;;;;;5073956;28;20179;-81
2021/03/10 12:01:05;;;;;;;7.80;6.97;;;10.10;99.90;;;;;;5073552;28;20724;-81
2021/03/10 12:03:31;;;;;;;9.70;6.93;;;9.90;99.90;;;;;;5071932;28;20504;-81
2021/03/10 12:05:56;;;;;;;19.93;8.17;;;9.80;99.90;;;;;;5073156;28;20184;-81
2021/03/10 12:08:22;;;;;;;15.40;9.10;;;9.60;99.90;;;;;;5072350;28;20225;-80
2021/03/10 12:10:47;;;;;;;13.70;8.47;;;9.40;99.90;;;;;;5074181;28;20189;-82
2021/03/10 12:13:13;;;;;;;17.37;9.57;;;9.70;99.90;;;;;;5073623;28;20207;-82
2021/03/10 12:15:39;;;;;;;9.90;8.90;;;9.80;99.90;;;;;;5073011;28;20580;-82
2021/03/10 12:18:06;;;;;;;10.40;8.20;;;10.10;99.90;;;;;;5071916;28;20252;-82
2021/03/10 12:20:32;;;;;;;10.50;8.50;;;10.10;99.90;;;;;;5071794;28;20841;-81
2021/03/10 12:22:57;;;;;;;10.93;8.07;;;10.20;99.90;;;;;;5074416;28;20500;-82
2021/03/10 12:25:23;;;;;;;10.70;9.60;;;10.30;99.90;;;;;;5078890;28;20476;-82
2021/03/10 12:27:50;;;;;;;14.63;9.40;;;10.50;99.90;;;;;;5072009;28;20195;-82
2021/03/10 12:30:16;;;;;;;8.53;7.50;;;10.00;99.90;;;;;;5075126;28;20182;-82
2021/03/10 12:32:42;;;;;;;9.00;6.60;;;10.40;99.90;;;;;;5074291;28;20461;-82
2021/03/10 12:35:08;;;;;;;23.83;10.83;;;10.20;99.90;;;;;;5071780;28;20416;-82
2021/03/10 12:37:35;;;;;;;9.47;8.50;;;10.10;99.90;;;;;;5073033;28;20203;-79
2021/03/10 12:40:00;;;;;;;9.27;7.70;;;10.20;99.90;;;;;;5072608;28;20409;-82
2021/03/10 12:42:26;;;;;;;11.13;9.30;;;9.90;99.90;;;;;;5071780;28;20418;-82